createdAt,value
2023-03-19T00:02:25.973Z,24.07
2023-03-19T00:04:55.290Z,21.60
2023-03-19T00:07:24.045Z,20.70
2023-03-19T00:09:52.173Z,18.97
2023-03-19T00:12:20.105Z,19.00
2023-03-19T00:14:48.099Z,19.70
2023-03-19T00:17:16.148Z,18.57
2023-03-19T00:19:44.548Z,19.10
2023-03-19T00:22:13.890Z,20.10
2023-03-19T00:24:41.770Z,22.00
2023-03-19T00:27:09.906Z,18.80
2023-03-19T00:29:37.816Z,19.37
2023-03-19T00:32:07.274Z,16.70
2023-03-19T00:34:35.840Z,19.20
2023-03-19T00:37:03.833Z,19.30
2023-03-19T00:39:33.202Z,17.63
2023-03-19T00:42:01.450Z,21.13
2023-03-19T00:44:29.408Z,18.50
2023-03-19T00:46:57.368Z,19.37
2023-03-19T00:49:25.291Z,19.00
2023-03-19T00:51:53.300Z,19.90
2023-03-19T00:54:21.257Z,17.60
2023-03-19T00:56:50.573Z,17.00
2023-03-19T00:59:18.595Z,19.63
2023-03-19T01:01:46.961Z,17.97
2023-03-19T01:04:14.956Z,15.87
2023-03-19T01:06:43.090Z,19.20
2023-03-19T01:09:11.687Z,18.60
2023-03-19T01:11:39.694Z,18.10
2023-03-19T01:14:09.132Z,17.73
2023-03-19T01:16:37.195Z,15.87
2023-03-19T01:19:06.304Z,16.67
2023-03-19T01:21:36.408Z,15.90
2023-03-19T01:24:05.143Z,17.60
2023-03-19T01:26:33.515Z,18.20
2023-03-19T01:29:16.262Z,17.57
2023-03-19T01:31:44.610Z,17.37
2023-03-19T01:34:35.549Z,16.30
2023-03-19T01:37:09.723Z,16.33
2023-03-19T01:39:38.747Z,18.37
2023-03-19T01:42:11.101Z,16.70
2023-03-19T01:45:00.865Z,17.63
2023-03-19T01:47:43.882Z,15.83
2023-03-19T01:50:24.874Z,17.03
2023-03-19T01:53:04.585Z,19.03
2023-03-19T01:55:48.486Z,19.00
2023-03-19T01:58:28.749Z,19.90
2023-03-19T02:01:24.561Z,16.13
2023-03-19T02:03:55.228Z,18.30
2023-03-19T02:06:28.315Z,18.43
2023-03-19T02:08:58.202Z,18.27
2023-03-19T02:11:27.883Z,22.93
2023-03-19T02:13:55.980Z,15.30
2023-03-19T02:16:25.576Z,16.30
2023-03-19T02:18:54.361Z,16.53
2023-03-19T02:21:23.104Z,18.37
2023-03-19T02:23:58.510Z,19.20
2023-03-19T02:26:47.102Z,18.20
2023-03-19T02:29:15.513Z,16.67
2023-03-19T02:31:43.874Z,18.93
2023-03-19T02:34:34.412Z,20.83
2023-03-19T02:37:08.956Z,17.13
2023-03-19T02:39:43.627Z,20.30
2023-03-19T02:42:15.821Z,17.40
2023-03-19T02:44:44.080Z,17.80
2023-03-19T02:47:12.110Z,16.33
2023-03-19T02:49:40.037Z,18.33
2023-03-19T02:52:08.507Z,16.83
2023-03-19T02:54:36.593Z,16.57
2023-03-19T02:57:05.400Z,18.60
2023-03-19T02:59:35.000Z,15.67
2023-03-19T03:02:03.196Z,18.60
2023-03-19T03:04:31.977Z,16.87
2023-03-19T03:06:59.895Z,18.50
2023-03-19T03:09:28.341Z,18.10
2023-03-19T03:11:56.384Z,16.17
2023-03-19T03:14:24.675Z,15.70
2023-03-19T03:16:54.061Z,16.83
2023-03-19T03:19:23.363Z,15.70
2023-03-19T03:21:51.945Z,17.43
2023-03-19T03:24:20.058Z,16.50
2023-03-19T03:26:48.056Z,16.37
2023-03-19T03:29:16.649Z,14.40
2023-03-19T03:31:44.887Z,14.70
2023-03-19T03:34:14.395Z,17.30
2023-03-19T03:36:42.329Z,15.97
2023-03-19T03:39:10.318Z,15.80
2023-03-19T03:41:38.563Z,14.53
2023-03-19T03:44:06.853Z,14.13
2023-03-19T03:46:37.249Z,13.47
2023-03-19T03:49:05.283Z,13.83
2023-03-19T03:51:34.853Z,14.73
2023-03-19T03:54:03.811Z,13.67
2023-03-19T03:56:33.193Z,13.50
2023-03-19T03:59:01.902Z,14.33
2023-03-19T04:01:29.866Z,14.40
2023-03-19T04:03:58.559Z,14.87
2023-03-19T04:06:27.958Z,14.70
2023-03-19T04:09:23.534Z,19.00
2023-03-19T04:11:51.783Z,16.90
2023-03-19T04:14:20.142Z,14.93
2023-03-19T04:16:48.241Z,15.73
2023-03-19T04:19:16.922Z,17.27
2023-03-19T04:21:44.978Z,15.60
2023-03-19T04:24:14.197Z,15.57
2023-03-19T04:26:43.634Z,15.17
2023-03-19T04:29:11.689Z,15.03
2023-03-19T04:31:40.563Z,16.03
2023-03-19T04:34:08.585Z,18.73
2023-03-19T04:36:36.644Z,17.03
2023-03-19T04:39:05.745Z,15.43
2023-03-19T04:41:33.741Z,16.37
2023-03-19T04:44:14.911Z,16.17
2023-03-19T04:46:44.822Z,19.80
2023-03-19T04:49:15.732Z,21.83
2023-03-19T04:51:44.698Z,19.57
2023-03-19T04:54:12.899Z,19.03
2023-03-19T04:56:41.036Z,18.97
2023-03-19T04:59:10.522Z,18.10
2023-03-19T05:01:39.999Z,16.73
2023-03-19T05:04:10.567Z,20.40
2023-03-19T05:06:39.561Z,19.53
2023-03-19T05:09:08.296Z,19.40
2023-03-19T05:11:36.685Z,20.67
2023-03-19T05:14:12.985Z,19.57
2023-03-19T05:16:58.292Z,22.47
2023-03-19T05:19:29.145Z,22.93
2023-03-19T05:21:58.064Z,19.60
2023-03-19T05:24:28.136Z,20.00
2023-03-19T05:26:58.168Z,22.43
2023-03-19T05:29:44.274Z,21.30
2023-03-19T05:32:37.475Z,22.87
2023-03-19T05:35:08.661Z,21.23
2023-03-19T05:37:37.839Z,22.43
2023-03-19T05:40:06.850Z,22.03
2023-03-19T05:42:35.349Z,22.30
2023-03-19T05:45:04.434Z,23.33
2023-03-19T05:47:48.368Z,23.37
2023-03-19T05:50:16.553Z,24.47
2023-03-19T05:52:58.493Z,26.87
2023-03-19T05:55:27.032Z,26.97
2023-03-19T05:58:02.178Z,27.20
2023-03-19T06:00:31.815Z,25.83
2023-03-19T06:03:01.477Z,25.13
2023-03-19T06:05:38.831Z,22.30
2023-03-19T06:08:21.818Z,26.73
2023-03-19T06:11:14.747Z,26.70
2023-03-19T06:13:46.105Z,24.60
2023-03-19T06:16:17.392Z,25.40
2023-03-19T06:18:57.353Z,24.57
2023-03-19T06:21:29.479Z,25.20
2023-03-19T06:24:00.220Z,26.67
2023-03-19T06:26:35.098Z,27.00
2023-03-19T06:29:08.309Z,28.43
2023-03-19T06:31:39.362Z,24.80
2023-03-19T06:34:18.252Z,25.50
2023-03-19T06:36:46.801Z,28.00
2023-03-19T06:39:17.580Z,25.50
2023-03-19T06:41:47.117Z,26.70
2023-03-19T06:44:19.153Z,24.10
2023-03-19T06:46:47.266Z,24.03
2023-03-19T06:49:15.429Z,23.90
2023-03-19T06:51:44.776Z,27.50
2023-03-19T06:54:12.722Z,25.73
2023-03-19T06:56:40.677Z,25.77
2023-03-19T06:59:12.301Z,25.80
2023-03-19T07:01:41.507Z,25.47
2023-03-19T07:04:09.878Z,23.87
2023-03-19T07:06:37.867Z,23.57
2023-03-19T07:09:07.558Z,23.90
2023-03-19T07:11:36.098Z,22.13
2023-03-19T07:14:04.474Z,24.53
2023-03-19T07:16:32.739Z,23.77
2023-03-19T07:19:00.883Z,26.77
2023-03-19T07:21:29.003Z,24.57
2023-03-19T07:23:57.090Z,23.70
2023-03-19T07:26:27.589Z,22.73
2023-03-19T07:28:56.562Z,23.73
2023-03-19T07:31:24.464Z,21.50
2023-03-19T07:33:52.433Z,21.10
2023-03-19T07:36:21.242Z,20.60
2023-03-19T07:38:49.235Z,20.50
2023-03-19T07:41:17.205Z,21.60
2023-03-19T07:43:46.532Z,18.93
2023-03-19T07:46:16.394Z,18.90
2023-03-19T07:48:44.409Z,17.93
2023-03-19T07:51:12.374Z,17.73
2023-03-19T07:53:40.509Z,17.27
2023-03-19T07:56:08.881Z,16.63
2023-03-19T07:58:36.834Z,17.23
2023-03-19T08:01:07.048Z,17.13
2023-03-19T08:03:35.185Z,13.23
2023-03-19T08:06:03.921Z,14.83
2023-03-19T08:08:34.910Z,11.63
2023-03-19T08:11:03.206Z,12.27
2023-03-19T08:13:31.590Z,10.30
2023-03-19T08:15:59.655Z,12.50
2023-03-19T08:18:29.131Z,10.23
2023-03-19T08:20:57.080Z,9.63
2023-03-19T08:23:25.144Z,9.20
2023-03-19T08:25:53.569Z,9.83
2023-03-19T08:28:21.826Z,10.83
2023-03-19T08:30:50.117Z,10.43
2023-03-19T08:33:18.275Z,11.93
2023-03-19T08:35:47.799Z,9.53
2023-03-19T08:38:15.876Z,9.07
2023-03-19T08:40:43.784Z,10.33
2023-03-19T08:43:12.067Z,10.13
2023-03-19T08:45:40.047Z,9.97
2023-03-19T08:48:08.044Z,9.10
2023-03-19T08:50:36.426Z,9.10
2023-03-19T08:53:06.125Z,9.33
2023-03-19T08:55:34.095Z,8.33
2023-03-19T08:58:02.192Z,8.07
2023-03-19T09:00:30.092Z,8.43
2023-03-19T09:02:58.124Z,9.97
2023-03-19T09:05:28.132Z,7.30
2023-03-19T09:07:57.770Z,8.10
2023-03-19T09:10:27.237Z,7.70
2023-03-19T09:12:55.269Z,7.17
2023-03-19T09:15:23.185Z,8.07
2023-03-19T09:17:51.249Z,9.10
2023-03-19T09:20:19.543Z,7.47
2023-03-19T09:22:47.608Z,7.23
2023-03-19T09:25:15.626Z,7.83
2023-03-19T09:27:45.240Z,8.87
2023-03-19T09:30:14.228Z,10.37
2023-03-19T09:32:42.337Z,8.23
2023-03-19T09:35:10.922Z,8.20
2023-03-19T09:37:38.890Z,8.00
2023-03-19T09:40:08.384Z,6.87
2023-03-19T09:42:56.924Z,6.33
2023-03-19T09:45:25.950Z,8.47
2023-03-19T09:47:59.645Z,7.13
2023-03-19T09:50:29.573Z,5.27
2023-03-19T09:53:02.750Z,6.10
2023-03-19T09:55:40.928Z,7.10
2023-03-19T09:58:15.970Z,7.03
2023-03-19T10:00:45.444Z,5.53
2023-03-19T10:03:36.520Z,6.17
2023-03-19T10:06:19.660Z,8.13
2023-03-19T10:09:01.173Z,4.90
2023-03-19T10:11:42.956Z,6.57
2023-03-19T10:14:42.304Z,6.73
2023-03-19T10:17:17.447Z,7.93
2023-03-19T10:19:50.059Z,8.30
2023-03-19T10:22:22.911Z,6.90
2023-03-19T10:24:53.289Z,6.60
2023-03-19T10:27:23.544Z,7.00
2023-03-19T10:29:53.542Z,5.90
2023-03-19T10:32:29.452Z,6.30
2023-03-19T10:35:02.792Z,5.40
2023-03-19T10:37:31.303Z,5.73
2023-03-19T10:40:01.384Z,5.90
2023-03-19T10:42:54.638Z,5.57
2023-03-19T10:45:29.172Z,6.77
2023-03-19T10:47:58.476Z,5.77
2023-03-19T10:50:31.344Z,4.90
2023-03-19T10:53:06.796Z,4.10
2023-03-19T10:55:35.962Z,5.80
2023-03-19T10:58:07.788Z,4.93
2023-03-19T11:00:37.477Z,6.00
2023-03-19T11:03:05.936Z,4.07
2023-03-19T11:05:35.350Z,4.70
2023-03-19T11:08:05.756Z,5.23
2023-03-19T11:10:35.965Z,4.77
2023-03-19T11:13:07.425Z,4.50
2023-03-19T11:15:38.642Z,4.47
2023-03-19T11:18:17.999Z,5.53
2023-03-19T11:20:50.815Z,5.27
2023-03-19T11:23:20.390Z,6.17
2023-03-19T11:25:53.064Z,4.97
2023-03-19T11:28:25.985Z,8.20
2023-03-19T11:31:01.633Z,5.70
2023-03-19T11:33:51.234Z,4.93
2023-03-19T11:36:23.871Z,4.73
2023-03-19T11:39:07.640Z,6.43
2023-03-19T11:41:50.686Z,6.40
2023-03-19T11:44:25.202Z,5.60
2023-03-19T11:47:14.852Z,5.83
2023-03-19T11:50:04.805Z,5.83
2023-03-19T11:52:40.062Z,5.87
2023-03-19T11:55:21.306Z,4.40
2023-03-19T11:58:05.466Z,5.07
2023-03-19T12:00:39.212Z,6.93
2023-03-19T12:03:49.036Z,5.43
2023-03-19T12:06:30.424Z,4.90
2023-03-19T12:09:03.908Z,4.37
2023-03-19T12:11:43.962Z,5.33
2023-03-19T12:14:26.637Z,5.50
2023-03-19T12:17:17.998Z,3.73
2023-03-19T12:20:11.803Z,3.77
2023-03-19T12:22:57.600Z,4.57
2023-03-19T12:25:45.488Z,8.83
2023-03-19T12:28:23.822Z,5.37
2023-03-19T12:31:09.831Z,6.67
2023-03-19T12:33:45.382Z,5.20
2023-03-19T12:36:18.185Z,4.10
2023-03-19T12:38:50.941Z,4.63
2023-03-19T12:41:23.135Z,4.80
2023-03-19T12:43:56.923Z,4.67
2023-03-19T12:46:29.726Z,4.50
2023-03-19T12:49:00.915Z,3.83
2023-03-19T12:51:35.300Z,4.40
2023-03-19T12:54:09.093Z,6.33
2023-03-19T12:56:45.494Z,4.10
2023-03-19T12:59:18.526Z,4.17
2023-03-19T13:01:50.516Z,4.37
2023-03-19T13:04:23.340Z,3.97
2023-03-19T13:06:56.086Z,4.60
2023-03-19T13:09:32.869Z,4.13
2023-03-19T13:12:07.807Z,5.87
2023-03-19T13:14:45.053Z,5.60
2023-03-19T13:17:21.448Z,4.23
2023-03-19T13:19:53.946Z,5.67
2023-03-19T13:22:24.148Z,6.50
2023-03-19T13:24:55.152Z,7.70
2023-03-19T13:27:27.135Z,7.47
2023-03-19T13:30:22.991Z,4.03
2023-03-19T13:32:54.316Z,3.97
2023-03-19T13:35:40.521Z,2.60
2023-03-19T13:38:19.430Z,2.70
2023-03-19T13:40:51.103Z,2.30
2023-03-19T13:43:43.987Z,2.60
2023-03-19T13:46:45.057Z,3.43
2023-03-19T13:49:31.119Z,2.70
2023-03-19T13:52:24.901Z,3.47
2023-03-19T13:54:56.680Z,2.47
2023-03-19T13:57:36.731Z,3.07
2023-03-19T14:00:47.311Z,3.30
2023-03-19T14:03:22.092Z,3.40
2023-03-19T14:05:51.848Z,3.23
2023-03-19T14:08:23.174Z,5.80
2023-03-19T14:10:53.925Z,3.70
2023-03-19T14:13:32.291Z,4.77
2023-03-19T14:16:08.767Z,3.57
2023-03-19T14:18:41.975Z,7.20
2023-03-19T14:21:16.248Z,4.73
2023-03-19T14:23:54.971Z,6.03
2023-03-19T14:26:26.049Z,6.07
2023-03-19T14:29:00.531Z,5.50
2023-03-19T14:31:34.774Z,5.67
2023-03-19T14:34:08.796Z,7.00
2023-03-19T14:36:39.265Z,6.30
2023-03-19T14:39:14.082Z,9.00
2023-03-19T14:41:47.123Z,4.73
2023-03-19T14:44:46.665Z,4.03
2023-03-19T14:47:27.513Z,4.47
2023-03-19T14:50:17.396Z,4.17
2023-03-19T14:52:48.300Z,4.50
2023-03-19T14:55:18.380Z,4.60
2023-03-19T14:57:46.693Z,5.47
2023-03-19T15:00:19.602Z,8.63
2023-03-19T15:02:50.163Z,7.33
2023-03-19T15:05:23.360Z,7.50
2023-03-19T15:07:55.402Z,10.83
2023-03-19T15:10:26.146Z,7.07
2023-03-19T15:13:20.229Z,9.70
2023-03-19T15:16:08.079Z,8.47
2023-03-19T15:18:38.828Z,10.77
2023-03-19T15:21:07.747Z,8.57
2023-03-19T15:23:36.135Z,8.80
2023-03-19T15:26:08.664Z,9.63
2023-03-19T15:28:48.047Z,13.10
2023-03-19T15:31:32.029Z,12.10
2023-03-19T15:34:19.209Z,8.77
2023-03-19T15:36:48.810Z,9.50
2023-03-19T15:39:20.524Z,11.67
2023-03-19T15:41:51.286Z,9.97
2023-03-19T15:44:23.416Z,7.70
2023-03-19T15:46:53.325Z,9.03
2023-03-19T15:49:25.229Z,9.27
2023-03-19T15:51:59.724Z,7.10
2023-03-19T15:54:28.350Z,9.77
2023-03-19T15:56:57.985Z,7.27
2023-03-19T15:59:29.980Z,8.33
2023-03-19T16:02:01.476Z,10.37
2023-03-19T16:04:38.422Z,11.50
2023-03-19T16:07:24.418Z,11.87
2023-03-19T16:09:52.724Z,9.03
2023-03-19T16:12:38.412Z,8.80
2023-03-19T16:15:29.874Z,10.87
2023-03-19T16:18:10.866Z,10.30
2023-03-19T16:20:45.497Z,10.30
2023-03-19T16:23:18.103Z,10.57
2023-03-19T16:25:47.365Z,10.73
2023-03-19T16:28:18.609Z,15.77
2023-03-19T16:30:48.760Z,12.03
2023-03-19T16:33:20.031Z,16.20
2023-03-19T16:35:48.284Z,10.97
2023-03-19T16:38:19.089Z,11.60
2023-03-19T16:40:48.804Z,16.63
2023-03-19T16:43:22.347Z,15.23
2023-03-19T16:46:04.810Z,16.17
2023-03-19T16:48:34.160Z,17.60
2023-03-19T16:51:02.043Z,16.33
2023-03-19T16:53:31.542Z,14.97
2023-03-19T16:56:01.627Z,17.10
2023-03-19T16:58:32.213Z,17.90
2023-03-19T17:01:00.402Z,18.30
2023-03-19T17:03:30.099Z,21.67
2023-03-19T17:05:59.402Z,21.87
2023-03-19T17:08:27.275Z,24.10
2023-03-19T17:10:56.173Z,25.40
2023-03-19T17:13:28.082Z,23.50
2023-03-19T17:15:58.044Z,27.43
2023-03-19T17:18:29.118Z,32.43
2023-03-19T17:21:02.027Z,28.07
2023-03-19T17:23:30.442Z,24.70
2023-03-19T17:25:59.042Z,23.13
2023-03-19T17:28:26.981Z,22.40
2023-03-19T17:30:55.642Z,25.47
2023-03-19T17:33:26.678Z,25.93
2023-03-19T17:35:56.174Z,24.70
2023-03-19T17:38:29.947Z,24.10
2023-03-19T17:40:57.961Z,26.03
2023-03-19T17:43:25.881Z,24.00
2023-03-19T17:45:55.583Z,24.23
2023-03-19T17:48:27.019Z,25.27
2023-03-19T17:50:59.650Z,25.60
2023-03-19T17:53:30.116Z,28.63
2023-03-19T17:55:58.231Z,27.97
2023-03-19T17:58:26.377Z,107.83
2023-03-19T18:00:54.482Z,23.17
2023-03-19T18:03:24.824Z,30.30
2023-03-19T18:05:52.805Z,26.13
2023-03-19T18:08:23.549Z,26.43
2023-03-19T18:10:52.979Z,27.27
2023-03-19T18:13:21.289Z,22.97
2023-03-19T18:15:49.593Z,24.90
2023-03-19T18:18:20.182Z,27.80
2023-03-19T18:20:49.200Z,26.93
2023-03-19T18:23:17.695Z,24.97
2023-03-19T18:25:46.642Z,24.20
2023-03-19T18:28:16.046Z,21.23
2023-03-19T18:30:45.850Z,21.00
2023-03-19T18:33:17.551Z,23.87
2023-03-19T18:35:46.588Z,22.47
2023-03-19T18:38:18.632Z,21.27
2023-03-19T18:40:46.989Z,21.53
2023-03-19T18:43:16.641Z,20.40
2023-03-19T18:45:46.644Z,21.00
2023-03-19T18:48:21.563Z,20.07
2023-03-19T18:50:49.663Z,17.50
2023-03-19T18:53:17.811Z,16.20
2023-03-19T18:55:46.406Z,15.03
2023-03-19T18:58:20.365Z,16.30
2023-03-19T19:00:49.235Z,15.23
2023-03-19T19:03:19.081Z,18.90
2023-03-19T19:05:49.571Z,17.27
2023-03-19T19:08:19.808Z,15.87
2023-03-19T19:10:51.172Z,17.27
2023-03-19T19:13:23.054Z,15.77
2023-03-19T19:15:52.218Z,18.63
2023-03-19T19:18:22.362Z,15.53
2023-03-19T19:20:52.363Z,13.07
2023-03-19T19:23:21.962Z,14.40
2023-03-19T19:25:52.095Z,13.93
2023-03-19T19:28:26.674Z,13.77
2023-03-19T19:30:57.281Z,14.00
2023-03-19T19:33:28.546Z,13.17
2023-03-19T19:35:57.207Z,38.20
2023-03-19T19:38:25.396Z,15.73
2023-03-19T19:40:55.799Z,16.43
2023-03-19T19:43:28.469Z,15.93
2023-03-19T19:45:59.452Z,17.97
2023-03-19T19:48:29.344Z,15.50
2023-03-19T19:50:57.980Z,15.67
2023-03-19T19:53:27.341Z,15.67
2023-03-19T19:55:56.281Z,13.77
2023-03-19T19:58:29.172Z,15.33
2023-03-19T20:01:03.893Z,16.70
2023-03-19T20:03:34.505Z,13.83
2023-03-19T20:06:03.331Z,16.80
2023-03-19T20:08:31.447Z,13.47
2023-03-19T20:10:59.519Z,14.20
2023-03-19T20:13:31.215Z,16.20
2023-03-19T20:16:00.892Z,19.50
2023-03-19T20:18:31.984Z,16.97
2023-03-19T20:21:00.981Z,17.60
2023-03-19T20:23:29.239Z,15.93
2023-03-19T20:25:58.207Z,15.63
2023-03-19T20:28:32.272Z,16.47
2023-03-19T20:31:01.253Z,14.70
2023-03-19T20:33:31.137Z,17.47
2023-03-19T20:35:59.319Z,19.37
2023-03-19T20:38:29.039Z,18.80
2023-03-19T20:40:58.794Z,22.23
2023-03-19T20:43:30.733Z,24.60
2023-03-19T20:46:01.801Z,31.37
2023-03-19T20:48:30.640Z,34.23
2023-03-19T20:50:59.319Z,37.47
2023-03-19T20:53:27.420Z,38.33
2023-03-19T20:55:56.330Z,45.13
2023-03-19T20:58:27.440Z,45.20
2023-03-19T21:00:58.458Z,48.63
2023-03-19T21:03:28.243Z,49.53
2023-03-19T21:06:01.737Z,44.93
2023-03-19T21:08:32.674Z,44.17
2023-03-19T21:11:01.304Z,46.63
2023-03-19T21:13:29.668Z,49.10
2023-03-19T21:15:59.571Z,49.80
2023-03-19T21:18:27.672Z,54.87
2023-03-19T21:20:57.574Z,57.20
2023-03-19T21:23:29.955Z,58.07
2023-03-19T21:25:59.139Z,70.00
2023-03-19T21:28:30.801Z,72.23
2023-03-19T21:31:00.590Z,71.13
2023-03-19T21:33:30.707Z,71.07
2023-03-19T21:35:59.730Z,77.53
2023-03-19T21:38:28.177Z,79.47
2023-03-19T21:40:58.815Z,81.43
2023-03-19T21:43:33.631Z,73.90
2023-03-19T21:46:17.490Z,81.93
2023-03-19T21:48:51.885Z,77.60
2023-03-19T21:51:19.844Z,79.53
2023-03-19T21:53:47.981Z,80.57
2023-03-19T21:56:22.279Z,69.97
2023-03-19T21:58:51.969Z,65.00
2023-03-19T22:01:24.025Z,64.33
2023-03-19T22:03:52.836Z,54.30
2023-03-19T22:06:21.920Z,67.87
2023-03-19T22:08:50.905Z,49.40
2023-03-19T22:11:21.661Z,70.63
2023-03-19T22:13:49.883Z,75.43
2023-03-19T22:16:23.162Z,58.67
2023-03-19T22:18:51.986Z,58.13
2023-03-19T22:21:21.783Z,55.60
2023-03-19T22:23:49.933Z,47.73
2023-03-19T22:26:30.068Z,57.57
2023-03-19T22:29:00.255Z,58.50
2023-03-19T22:31:30.083Z,62.10
2023-03-19T22:33:58.422Z,57.90
2023-03-19T22:36:26.367Z,54.07
2023-03-19T22:38:54.342Z,54.83
2023-03-19T22:41:28.144Z,56.70
2023-03-19T22:43:57.763Z,60.50
2023-03-19T22:46:26.511Z,53.97
2023-03-19T22:48:56.141Z,54.37
2023-03-19T22:51:26.105Z,52.93
2023-03-19T22:53:55.158Z,53.63
2023-03-19T22:56:23.447Z,55.70
2023-03-19T22:58:52.238Z,61.57
2023-03-19T23:01:30.891Z,52.03
2023-03-19T23:04:22.138Z,50.70
2023-03-19T23:06:51.560Z,52.93
2023-03-19T23:09:22.077Z,54.60
2023-03-19T23:11:50.136Z,58.20
2023-03-19T23:14:29.214Z,49.97
2023-03-19T23:16:59.980Z,52.83
2023-03-19T23:19:32.054Z,53.30
2023-03-19T23:22:02.386Z,49.27
2023-03-19T23:24:30.939Z,49.70
2023-03-19T23:26:59.946Z,50.07
2023-03-19T23:29:30.749Z,49.20
2023-03-19T23:31:59.364Z,52.07
2023-03-19T23:34:29.386Z,48.30
2023-03-19T23:36:57.909Z,47.40
2023-03-19T23:39:25.932Z,46.53
2023-03-19T23:41:57.673Z,43.60
2023-03-19T23:44:26.312Z,45.17
2023-03-19T23:46:54.791Z,53.47
2023-03-19T23:49:28.570Z,46.70
2023-03-19T23:51:58.936Z,48.03
2023-03-19T23:54:32.394Z,47.20
2023-03-19T23:57:03.424Z,49.90
2023-03-19T23:59:35.174Z,44.03
